sensor_id;sensor_type;location;lat;lon;timestamp;P1;durP1;ratioP1;P2;durP2;ratioP2
4122;SDS011;2075;51.062;6.920;2024-01-10T00:02:02;14.50;;;6.50;;
4122;SDS011;2075;51.062;6.920;2024-01-10T00:04:48;9.97;;;6.20;;
4122;SDS011;2075;51.062;6.920;2024-01-10T00:07:34;11.80;;;5.63;;
4122;SDS011;2075;51.062;6.920;2024-01-10T00:10:22;14.37;;;6.60;;
4122;SDS011;2075;51.062;6.920;2024-01-10T00:13:07;23.47;;;8.07;;
4122;SDS011;2075;51.062;6.920;2024-01-10T00:15:53;17.43;;;9.20;;
4122;SDS011;2075;51.062;6.920;2024-01-10T00:18:39;15.40;;;7.50;;
4122;SDS011;2075;51.062;6.920;2024-01-10T00:21:25;12.70;;;7.43;;
4122;SDS011;2075;51.062;6.920;2024-01-10T00:24:10;15.17;;;6.27;;
4122;SDS011;2075;51.062;6.920;2024-01-10T00:26:57;15.70;;;5.33;;
4122;SDS011;2075;51.062;6.920;2024-01-10T00:29:42;10.20;;;5.80;;
4122;SDS011;2075;51.062;6.920;2024-01-10T00:32:28;11.70;;;5.47;;
4122;SDS011;2075;51.062;6.920;2024-01-10T00:35:13;9.23;;;5.87;;
4122;SDS011;2075;51.062;6.920;2024-01-10T00:37:59;12.30;;;5.63;;
4122;SDS011;2075;51.062;6.920;2024-01-10T00:40:45;12.70;;;6.10;;
4122;SDS011;2075;51.062;6.920;2024-01-10T00:43:31;10.90;;;5.60;;
4122;SDS011;2075;51.062;6.920;2024-01-10T00:46:17;10.13;;;5.90;;
4122;SDS011;2075;51.062;6.920;2024-01-10T00:49:02;7.40;;;5.17;;
4122;SDS011;2075;51.062;6.920;2024-01-10T00:51:48;8.60;;;5.60;;
4122;SDS011;2075;51.062;6.920;2024-01-10T00:54:33;11.77;;;6.27;;
4122;SDS011;2075;51.062;6.920;2024-01-10T00:57:18;13.30;;;6.13;;
4122;SDS011;2075;51.062;6.920;2024-01-10T01:00:07;11.03;;;5.90;;
4122;SDS011;2075;51.062;6.920;2024-01-10T01:02:54;12.00;;;6.40;;
4122;SDS011;2075;51.062;6.920;2024-01-10T01:05:39;9.13;;;5.27;;
4122;SDS011;2075;51.062;6.920;2024-01-10T01:08:25;13.03;;;7.07;;
4122;SDS011;2075;51.062;6.920;2024-01-10T01:11:10;11.83;;;6.17;;
4122;SDS011;2075;51.062;6.920;2024-01-10T01:13:58;11.77;;;6.60;;
4122;SDS011;2075;51.062;6.920;2024-01-10T01:16:45;11.57;;;5.83;;
4122;SDS011;2075;51.062;6.920;2024-01-10T01:19:30;13.57;;;7.27;;
4122;SDS011;2075;51.062;6.920;2024-01-10T01:22:16;10.90;;;5.57;;
4122;SDS011;2075;51.062;6.920;2024-01-10T01:25:01;11.10;;;6.17;;
4122;SDS011;2075;51.062;6.920;2024-01-10T01:27:47;13.20;;;6.07;;
4122;SDS011;2075;51.062;6.920;2024-01-10T01:30:32;8.17;;;5.67;;
4122;SDS011;2075;51.062;6.920;2024-01-10T01:33:19;12.63;;;7.23;;
4122;SDS011;2075;51.062;6.920;2024-01-10T01:36:04;13.37;;;6.97;;
4122;SDS011;2075;51.062;6.920;2024-01-10T01:38:50;14.33;;;6.70;;
4122;SDS011;2075;51.062;6.920;2024-01-10T01:41:36;8.97;;;5.30;;
4122;SDS011;2075;51.062;6.920;2024-01-10T01:44:21;14.73;;;5.97;;
4122;SDS011;2075;51.062;6.920;2024-01-10T01:47:07;9.70;;;5.90;;
4122;SDS011;2075;51.062;6.920;2024-01-10T01:49:54;10.73;;;6.30;;
4122;SDS011;2075;51.062;6.920;2024-01-10T01:52:39;11.23;;;5.70;;
4122;SDS011;2075;51.062;6.920;2024-01-10T01:55:25;17.20;;;6.50;;
4122;SDS011;2075;51.062;6.920;2024-01-10T01:58:10;12.27;;;6.13;;
4122;SDS011;2075;51.062;6.920;2024-01-10T02:00:57;13.70;;;6.40;;
4122;SDS011;2075;51.062;6.920;2024-01-10T02:03:43;10.57;;;5.90;;
4122;SDS011;2075;51.062;6.920;2024-01-10T02:06:30;11.67;;;5.90;;
4122;SDS011;2075;51.062;6.920;2024-01-10T02:09:16;12.17;;;5.80;;
4122;SDS011;2075;51.062;6.920;2024-01-10T02:12:01;11.47;;;5.80;;
4122;SDS011;2075;51.062;6.920;2024-01-10T02:14:47;15.00;;;6.27;;
4122;SDS011;2075;51.062;6.920;2024-01-10T02:17:33;8.70;;;5.40;;
4122;SDS011;2075;51.062;6.920;2024-01-10T02:20:18;14.33;;;6.63;;
4122;SDS011;2075;51.062;6.920;2024-01-10T02:23:05;13.93;;;6.03;;
4122;SDS011;2075;51.062;6.920;2024-01-10T02:25:52;13.60;;;5.87;;
4122;SDS011;2075;51.062;6.920;2024-01-10T02:28:38;18.30;;;6.40;;
4122;SDS011;2075;51.062;6.920;2024-01-10T02:31:23;14.20;;;6.17;;
4122;SDS011;2075;51.062;6.920;2024-01-10T02:34:11;9.70;;;5.60;;
4122;SDS011;2075;51.062;6.920;2024-01-10T02:36:57;8.13;;;5.53;;
4122;SDS011;2075;51.062;6.920;2024-01-10T02:39:42;10.97;;;5.70;;
4122;SDS011;2075;51.062;6.920;2024-01-10T02:42:29;11.63;;;5.83;;
4122;SDS011;2075;51.062;6.920;2024-01-10T02:45:16;11.60;;;6.93;;
4122;SDS011;2075;51.062;6.920;2024-01-10T02:48:02;11.90;;;5.90;;
4122;SDS011;2075;51.062;6.920;2024-01-10T02:50:47;15.43;;;6.20;;
4122;SDS011;2075;51.062;6.920;2024-01-10T02:53:33;14.63;;;6.77;;
4122;SDS011;2075;51.062;6.920;2024-01-10T02:56:18;14.37;;;7.93;;
4122;SDS011;2075;51.062;6.920;2024-01-10T02:59:05;20.60;;;8.03;;
4122;SDS011;2075;51.062;6.920;2024-01-10T03:01:51;18.00;;;8.20;;
4122;SDS011;2075;51.062;6.920;2024-01-10T03:04:37;12.60;;;7.47;;
4122;SDS011;2075;51.062;6.920;2024-01-10T03:07:22;13.47;;;6.90;;
4122;SDS011;2075;51.062;6.920;2024-01-10T03:10:08;12.27;;;6.17;;
4122;SDS011;2075;51.062;6.920;2024-01-10T03:12:54;14.10;;;6.10;;
4122;SDS011;2075;51.062;6.920;2024-01-10T03:15:41;13.00;;;7.00;;
4122;SDS011;2075;51.062;6.920;2024-01-10T03:18:27;12.43;;;5.50;;
4122;SDS011;2075;51.062;6.920;2024-01-10T03:21:12;10.63;;;5.97;;
4122;SDS011;2075;51.062;6.920;2024-01-10T03:23:58;12.00;;;6.10;;
4122;SDS011;2075;51.062;6.920;2024-01-10T03:26:44;11.90;;;6.13;;
4122;SDS011;2075;51.062;6.920;2024-01-10T03:29:30;12.43;;;5.70;;
4122;SDS011;2075;51.062;6.920;2024-01-10T03:32:16;10.80;;;6.10;;
4122;SDS011;2075;51.062;6.920;2024-01-10T03:35:02;12.10;;;6.13;;
4122;SDS011;2075;51.062;6.920;2024-01-10T03:37:47;14.23;;;7.33;;
4122;SDS011;2075;51.062;6.920;2024-01-10T03:40:33;12.20;;;5.73;;
4122;SDS011;2075;51.062;6.920;2024-01-10T03:43:18;13.60;;;6.40;;
4122;SDS011;2075;51.062;6.920;2024-01-10T03:46:03;10.63;;;5.70;;
4122;SDS011;2075;51.062;6.920;2024-01-10T03:48:51;12.93;;;5.70;;
4122;SDS011;2075;51.062;6.920;2024-01-10T03:51:37;11.30;;;5.73;;
4122;SDS011;2075;51.062;6.920;2024-01-10T03:54:24;14.60;;;6.17;;
4122;SDS011;2075;51.062;6.920;2024-01-10T03:57:09;12.03;;;6.13;;
4122;SDS011;2075;51.062;6.920;2024-01-10T03:59:55;12.40;;;6.20;;
4122;SDS011;2075;51.062;6.920;2024-01-10T04:02:41;10.87;;;6.07;;
4122;SDS011;2075;51.062;6.920;2024-01-10T04:05:27;12.50;;;5.33;;
4122;SDS011;2075;51.062;6.920;2024-01-10T04:08:13;10.40;;;5.93;;
4122;SDS011;2075;51.062;6.920;2024-01-10T04:10:59;10.50;;;5.97;;
4122;SDS011;2075;51.062;6.920;2024-01-10T04:13:46;13.37;;;5.97;;
4122;SDS011;2075;51.062;6.920;2024-01-10T04:16:32;15.50;;;6.70;;
4122;SDS011;2075;51.062;6.920;2024-01-10T04:19:18;10.60;;;5.93;;
4122;SDS011;2075;51.062;6.920;2024-01-10T04:22:06;13.30;;;6.17;;
4122;SDS011;2075;51.062;6.920;2024-01-10T04:24:51;11.50;;;5.90;;
4122;SDS011;2075;51.062;6.920;2024-01-10T04:27:37;13.23;;;6.87;;
4122;SDS011;2075;51.062;6.920;2024-01-10T04:30:23;14.70;;;6.77;;
4122;SDS011;2075;51.062;6.920;2024-01-10T04:33:08;13.20;;;6.83;;
4122;SDS011;2075;51.062;6.920;2024-01-10T04:35:54;15.70;;;6.47;;
4122;SDS011;2075;51.062;6.920;2024-01-10T04:38:41;10.50;;;5.87;;
4122;SDS011;2075;51.062;6.920;2024-01-10T04:41:26;19.30;;;6.30;;
4122;SDS011;2075;51.062;6.920;2024-01-10T04:44:12;16.20;;;6.57;;
4122;SDS011;2075;51.062;6.920;2024-01-10T04:46:57;10.77;;;5.90;;
4122;SDS011;2075;51.062;6.920;2024-01-10T04:49:43;16.27;;;6.00;;
4122;SDS011;2075;51.062;6.920;2024-01-10T04:52:28;14.93;;;7.00;;
4122;SDS011;2075;51.062;6.920;2024-01-10T04:55:15;11.97;;;6.20;;
4122;SDS011;2075;51.062;6.920;2024-01-10T04:58:00;14.23;;;5.70;;
4122;SDS011;2075;51.062;6.920;2024-01-10T05:00:47;18.17;;;7.40;;
4122;SDS011;2075;51.062;6.920;2024-01-10T05:03:32;13.27;;;6.60;;
4122;SDS011;2075;51.062;6.920;2024-01-10T05:06:17;12.67;;;6.47;;
4122;SDS011;2075;51.062;6.920;2024-01-10T05:09:03;9.77;;;5.57;;
4122;SDS011;2075;51.062;6.920;2024-01-10T05:11:49;13.40;;;6.47;;
4122;SDS011;2075;51.062;6.920;2024-01-10T05:14:35;13.40;;;5.97;;
4122;SDS011;2075;51.062;6.920;2024-01-10T05:17:21;10.90;;;5.93;;
4122;SDS011;2075;51.062;6.920;2024-01-10T05:20:06;12.27;;;6.37;;
4122;SDS011;2075;51.062;6.920;2024-01-10T05:22:53;11.33;;;6.40;;
4122;SDS011;2075;51.062;6.920;2024-01-10T05:25:42;12.10;;;6.23;;
4122;SDS011;2075;51.062;6.920;2024-01-10T05:28:28;16.00;;;6.73;;
4122;SDS011;2075;51.062;6.920;2024-01-10T05:31:14;11.40;;;5.87;;
4122;SDS011;2075;51.062;6.920;2024-01-10T05:33:59;9.63;;;5.73;;
4122;SDS011;2075;51.062;6.920;2024-01-10T05:36:45;14.23;;;6.27;;
4122;SDS011;2075;51.062;6.920;2024-01-10T05:39:31;13.30;;;5.80;;
4122;SDS011;2075;51.062;6.920;2024-01-10T05:42:16;9.90;;;5.60;;
4122;SDS011;2075;51.062;6.920;2024-01-10T05:45:05;11.87;;;5.93;;
4122;SDS011;2075;51.062;6.920;2024-01-10T05:47:51;9.57;;;5.77;;
4122;SDS011;2075;51.062;6.920;2024-01-10T05:50:36;9.50;;;6.17;;
4122;SDS011;2075;51.062;6.920;2024-01-10T05:53:23;12.03;;;6.10;;
4122;SDS011;2075;51.062;6.920;2024-01-10T05:56:11;12.80;;;6.20;;
4122;SDS011;2075;51.062;6.920;2024-01-10T05:58:57;19.20;;;7.00;;
4122;SDS011;2075;51.062;6.920;2024-01-10T06:01:44;5.63;;;4.63;;
4122;SDS011;2075;51.062;6.920;2024-01-10T06:04:29;7.63;;;5.03;;
4122;SDS011;2075;51.062;6.920;2024-01-10T06:07:15;12.20;;;5.47;;
4122;SDS011;2075;51.062;6.920;2024-01-10T06:10:00;8.40;;;5.53;;
4122;SDS011;2075;51.062;6.920;2024-01-10T06:12:46;12.10;;;5.83;;
4122;SDS011;2075;51.062;6.920;2024-01-10T06:15:32;11.40;;;5.43;;
4122;SDS011;2075;51.062;6.920;2024-01-10T06:18:20;12.10;;;6.40;;
4122;SDS011;2075;51.062;6.920;2024-01-10T06:21:05;16.83;;;8.17;;
4122;SDS011;2075;51.062;6.920;2024-01-10T06:23:50;12.50;;;6.47;;
4122;SDS011;2075;51.062;6.920;2024-01-10T06:26:36;14.60;;;6.30;;
4122;SDS011;2075;51.062;6.920;2024-01-10T06:29:21;15.70;;;6.77;;
4122;SDS011;2075;51.062;6.920;2024-01-10T06:32:07;13.73;;;5.50;;
4122;SDS011;2075;51.062;6.920;2024-01-10T06:34:54;16.03;;;6.53;;
4122;SDS011;2075;51.062;6.920;2024-01-10T06:37:39;19.73;;;7.93;;
4122;SDS011;2075;51.062;6.920;2024-01-10T06:40:28;14.40;;;6.70;;
4122;SDS011;2075;51.062;6.920;2024-01-10T06:43:16;17.08;;;9.10;;
4122;SDS011;2075;51.062;6.920;2024-01-10T06:46:01;10.80;;;6.70;;
4122;SDS011;2075;51.062;6.920;2024-01-10T06:48:47;17.70;;;7.40;;
4122;SDS011;2075;51.062;6.920;2024-01-10T06:51:34;14.20;;;5.67;;
4122;SDS011;2075;51.062;6.920;2024-01-10T06:54:20;13.37;;;6.10;;
4122;SDS011;2075;51.062;6.920;2024-01-10T06:57:06;14.00;;;7.80;;
4122;SDS011;2075;51.062;6.920;2024-01-10T06:59:51;13.25;;;7.80;;
4122;SDS011;2075;51.062;6.920;2024-01-10T07:02:37;15.30;;;7.57;;
4122;SDS011;2075;51.062;6.920;2024-01-10T07:05:22;12.93;;;6.77;;
4122;SDS011;2075;51.062;6.920;2024-01-10T07:08:10;10.87;;;5.97;;
4122;SDS011;2075;51.062;6.920;2024-01-10T07:10:56;14.13;;;7.00;;
4122;SDS011;2075;51.062;6.920;2024-01-10T07:13:41;11.70;;;6.07;;
4122;SDS011;2075;51.062;6.920;2024-01-10T07:16:26;9.40;;;5.10;;
4122;SDS011;2075;51.062;6.920;2024-01-10T07:19:12;15.50;;;6.90;;
4122;SDS011;2075;51.062;6.920;2024-01-10T07:21:58;12.57;;;6.37;;
4122;SDS011;2075;51.062;6.920;2024-01-10T07:24:46;11.13;;;5.80;;
4122;SDS011;2075;51.062;6.920;2024-01-10T07:27:31;9.77;;;5.67;;
4122;SDS011;2075;51.062;6.920;2024-01-10T07:30:17;14.13;;;7.45;;
4122;SDS011;2075;51.062;6.920;2024-01-10T07:33:03;14.43;;;6.80;;
4122;SDS011;2075;51.062;6.920;2024-01-10T07:35:49;18.83;;;7.33;;
4122;SDS011;2075;51.062;6.920;2024-01-10T07:38:37;14.50;;;6.30;;
4122;SDS011;2075;51.062;6.920;2024-01-10T07:41:24;15.03;;;6.57;;
4122;SDS011;2075;51.062;6.920;2024-01-10T07:44:09;14.30;;;7.30;;
4122;SDS011;2075;51.062;6.920;2024-01-10T07:46:56;9.57;;;5.47;;
4122;SDS011;2075;51.062;6.920;2024-01-10T07:49:42;14.20;;;6.00;;
4122;SDS011;2075;51.062;6.920;2024-01-10T07:52:29;15.90;;;7.40;;
4122;SDS011;2075;51.062;6.920;2024-01-10T07:55:15;16.83;;;7.20;;
4122;SDS011;2075;51.062;6.920;2024-01-10T07:58:03;24.93;;;11.90;;
4122;SDS011;2075;51.062;6.920;2024-01-10T08:00:49;24.90;;;10.53;;
4122;SDS011;2075;51.062;6.920;2024-01-10T08:03:35;15.80;;;8.80;;
4122;SDS011;2075;51.062;6.920;2024-01-10T08:06:20;25.27;;;12.20;;
4122;SDS011;2075;51.062;6.920;2024-01-10T08:09:07;24.70;;;11.60;;
4122;SDS011;2075;51.062;6.920;2024-01-10T08:11:54;24.60;;;10.90;;
4122;SDS011;2075;51.062;6.920;2024-01-10T08:14:42;18.93;;;9.20;;
4122;SDS011;2075;51.062;6.920;2024-01-10T08:17:29;30.40;;;12.30;;
4122;SDS011;2075;51.062;6.920;2024-01-10T08:20:15;35.60;;;14.67;;
4122;SDS011;2075;51.062;6.920;2024-01-10T08:23:05;37.47;;;15.37;;
4122;SDS011;2075;51.062;6.920;2024-01-10T08:25:52;30.60;;;13.83;;
4122;SDS011;2075;51.062;6.920;2024-01-10T08:28:39;43.73;;;17.10;;
4122;SDS011;2075;51.062;6.920;2024-01-10T08:31:28;31.73;;;14.40;;
4122;SDS011;2075;51.062;6.920;2024-01-10T08:34:14;24.53;;;11.30;;
4122;SDS011;2075;51.062;6.920;2024-01-10T08:36:59;25.87;;;10.67;;
4122;SDS011;2075;51.062;6.920;2024-01-10T08:39:45;22.27;;;11.32;;
4122;SDS011;2075;51.062;6.920;2024-01-10T08:42:31;21.40;;;9.97;;
4122;SDS011;2075;51.062;6.920;2024-01-10T08:45:16;20.13;;;9.77;;
4122;SDS011;2075;51.062;6.920;2024-01-10T08:48:04;17.53;;;9.17;;
4122;SDS011;2075;51.062;6.920;2024-01-10T08:50:50;19.43;;;9.63;;
4122;SDS011;2075;51.062;6.920;2024-01-10T08:53:35;24.23;;;9.10;;
4122;SDS011;2075;51.062;6.920;2024-01-10T08:56:21;17.67;;;8.97;;
4122;SDS011;2075;51.062;6.920;2024-01-10T08:59:07;14.17;;;8.03;;
4122;SDS011;2075;51.062;6.920;2024-01-10T09:01:54;16.87;;;8.73;;
4122;SDS011;2075;51.062;6.920;2024-01-10T09:04:42;20.67;;;9.30;;
4122;SDS011;2075;51.062;6.920;2024-01-10T09:07:27;19.43;;;10.33;;
4122;SDS011;2075;51.062;6.920;2024-01-10T09:10:14;17.20;;;8.87;;
4122;SDS011;2075;51.062;6.920;2024-01-10T09:13:00;23.07;;;9.73;;
4122;SDS011;2075;51.062;6.920;2024-01-10T09:15:46;18.00;;;9.57;;
4122;SDS011;2075;51.062;6.920;2024-01-10T09:18:32;18.80;;;8.73;;
4122;SDS011;2075;51.062;6.920;2024-01-10T09:21:20;15.30;;;8.40;;
4122;SDS011;2075;51.062;6.920;2024-01-10T09:24:05;22.73;;;9.77;;
4122;SDS011;2075;51.062;6.920;2024-01-10T09:26:54;23.37;;;11.40;;
4122;SDS011;2075;51.062;6.920;2024-01-10T09:29:40;23.40;;;10.00;;
4122;SDS011;2075;51.062;6.920;2024-01-10T09:32:26;15.90;;;8.90;;
4122;SDS011;2075;51.062;6.920;2024-01-10T09:35:12;29.97;;;9.77;;
4122;SDS011;2075;51.062;6.920;2024-01-10T09:37:59;21.63;;;8.30;;
4122;SDS011;2075;51.062;6.920;2024-01-10T09:40:45;18.03;;;8.87;;
4122;SDS011;2075;51.062;6.920;2024-01-10T09:43:31;19.90;;;9.57;;
4122;SDS011;2075;51.062;6.920;2024-01-10T09:46:18;22.33;;;9.13;;
4122;SDS011;2075;51.062;6.920;2024-01-10T09:49:04;18.50;;;10.10;;
4122;SDS011;2075;51.062;6.920;2024-01-10T09:51:50;22.77;;;10.03;;
4122;SDS011;2075;51.062;6.920;2024-01-10T09:54:39;20.60;;;10.47;;
4122;SDS011;2075;51.062;6.920;2024-01-10T09:57:25;17.70;;;9.87;;
4122;SDS011;2075;51.062;6.920;2024-01-10T10:00:11;18.33;;;10.67;;
4122;SDS011;2075;51.062;6.920;2024-01-10T10:03:00;19.47;;;9.60;;
4122;SDS011;2075;51.062;6.920;2024-01-10T10:05:48;20.97;;;10.93;;
4122;SDS011;2075;51.062;6.920;2024-01-10T10:08:34;20.77;;;11.43;;
4122;SDS011;2075;51.062;6.920;2024-01-10T10:11:23;24.17;;;9.70;;
4122;SDS011;2075;51.062;6.920;2024-01-10T10:14:18;23.13;;;10.27;;
4122;SDS011;2075;51.062;6.920;2024-01-10T10:17:13;23.90;;;9.20;;
4122;SDS011;2075;51.062;6.920;2024-01-10T10:20:03;20.67;;;10.67;;
4122;SDS011;2075;51.062;6.920;2024-01-10T10:22:59;23.50;;;11.40;;
4122;SDS011;2075;51.062;6.920;2024-01-10T10:25:46;30.60;;;13.30;;
4122;SDS011;2075;51.062;6.920;2024-01-10T10:28:34;29.33;;;13.73;;
4122;SDS011;2075;51.062;6.920;2024-01-10T10:31:24;30.40;;;14.00;;
4122;SDS011;2075;51.062;6.920;2024-01-10T10:34:10;22.80;;;11.10;;
4122;SDS011;2075;51.062;6.920;2024-01-10T10:36:57;22.07;;;11.60;;
4122;SDS011;2075;51.062;6.920;2024-01-10T10:39:42;26.03;;;11.10;;
4122;SDS011;2075;51.062;6.920;2024-01-10T10:42:29;19.23;;;10.80;;
4122;SDS011;2075;51.062;6.920;2024-01-10T10:45:18;19.33;;;11.00;;
4122;SDS011;2075;51.062;6.920;2024-01-10T10:48:09;21.30;;;10.50;;
4122;SDS011;2075;51.062;6.920;2024-01-10T10:50:59;23.93;;;11.53;;
4122;SDS011;2075;51.062;6.920;2024-01-10T10:53:51;34.10;;;11.67;;
4122;SDS011;2075;51.062;6.920;2024-01-10T10:56:38;25.70;;;13.60;;
4122;SDS011;2075;51.062;6.920;2024-01-10T10:59:25;28.00;;;12.40;;
4122;SDS011;2075;51.062;6.920;2024-01-10T11:02:13;25.77;;;11.93;;
4122;SDS011;2075;51.062;6.920;2024-01-10T11:05:05;23.30;;;10.50;;
4122;SDS011;2075;51.062;6.920;2024-01-10T11:08:00;27.67;;;11.87;;
4122;SDS011;2075;51.062;6.920;2024-01-10T11:10:49;23.80;;;11.50;;
4122;SDS011;2075;51.062;6.920;2024-01-10T11:13:43;25.13;;;13.50;;
4122;SDS011;2075;51.062;6.920;2024-01-10T11:16:56;20.43;;;11.37;;
4122;SDS011;2075;51.062;6.920;2024-01-10T11:20:33;20.73;;;10.50;;
4122;SDS011;2075;51.062;6.920;2024-01-10T11:23:39;22.13;;;10.00;;
4122;SDS011;2075;51.062;6.920;2024-01-10T11:26:31;25.50;;;13.20;;
4122;SDS011;2075;51.062;6.920;2024-01-10T11:29:18;20.23;;;11.23;;
4122;SDS011;2075;51.062;6.920;2024-01-10T11:32:05;22.80;;;11.30;;
4122;SDS011;2075;51.062;6.920;2024-01-10T11:34:57;27.93;;;11.60;;
4122;SDS011;2075;51.062;6.920;2024-01-10T11:37:45;23.97;;;11.33;;
4122;SDS011;2075;51.062;6.920;2024-01-10T11:40:46;29.13;;;12.07;;
4122;SDS011;2075;51.062;6.920;2024-01-10T11:43:33;23.10;;;12.27;;
4122;SDS011;2075;51.062;6.920;2024-01-10T11:46:21;22.30;;;11.27;;
4122;SDS011;2075;51.062;6.920;2024-01-10T11:49:08;25.73;;;13.73;;
4122;SDS011;2075;51.062;6.920;2024-01-10T11:51:56;23.47;;;11.80;;
4122;SDS011;2075;51.062;6.920;2024-01-10T11:54:46;23.33;;;12.50;;
4122;SDS011;2075;51.062;6.920;2024-01-10T11:57:34;22.40;;;11.60;;
4122;SDS011;2075;51.062;6.920;2024-01-10T12:00:21;25.20;;;10.70;;
4122;SDS011;2075;51.062;6.920;2024-01-10T12:03:09;30.70;;;13.23;;
4122;SDS011;2075;51.062;6.920;2024-01-10T12:05:57;24.20;;;13.60;;
4122;SDS011;2075;51.062;6.920;2024-01-10T12:08:44;29.20;;;12.67;;
4122;SDS011;2075;51.062;6.920;2024-01-10T12:11:31;27.45;;;14.15;;
4122;SDS011;2075;51.062;6.920;2024-01-10T12:14:18;24.10;;;12.10;;
4122;SDS011;2075;51.062;6.920;2024-01-10T12:17:06;26.00;;;13.60;;
4122;SDS011;2075;51.062;6.920;2024-01-10T12:19:53;22.67;;;11.00;;
4122;SDS011;2075;51.062;6.920;2024-01-10T12:22:39;23.53;;;11.60;;
4122;SDS011;2075;51.062;6.920;2024-01-10T12:25:28;26.90;;;12.88;;
4122;SDS011;2075;51.062;6.920;2024-01-10T12:28:17;25.33;;;11.87;;
4122;SDS011;2075;51.062;6.920;2024-01-10T12:31:04;24.83;;;11.50;;
4122;SDS011;2075;51.062;6.920;2024-01-10T12:33:54;19.30;;;10.55;;
4122;SDS011;2075;51.062;6.920;2024-01-10T12:36:41;24.63;;;11.77;;
4122;SDS011;2075;51.062;6.920;2024-01-10T12:39:27;24.70;;;11.00;;
4122;SDS011;2075;51.062;6.920;2024-01-10T12:42:16;23.97;;;10.90;;
4122;SDS011;2075;51.062;6.920;2024-01-10T12:45:05;25.90;;;11.27;;
4122;SDS011;2075;51.062;6.920;2024-01-10T12:48:07;21.50;;;10.27;;
4122;SDS011;2075;51.062;6.920;2024-01-10T12:51:01;20.73;;;10.27;;
4122;SDS011;2075;51.062;6.920;2024-01-10T12:53:50;27.53;;;11.23;;
4122;SDS011;2075;51.062;6.920;2024-01-10T12:56:36;18.00;;;10.70;;
4122;SDS011;2075;51.062;6.920;2024-01-10T12:59:22;24.53;;;11.37;;
4122;SDS011;2075;51.062;6.920;2024-01-10T13:02:10;43.20;;;12.07;;
4122;SDS011;2075;51.062;6.920;2024-01-10T13:04:56;24.97;;;11.20;;
4122;SDS011;2075;51.062;6.920;2024-01-10T13:07:42;23.70;;;10.60;;
4122;SDS011;2075;51.062;6.920;2024-01-10T13:10:29;24.10;;;13.43;;
4122;SDS011;2075;51.062;6.920;2024-01-10T13:13:15;23.93;;;11.27;;
4122;SDS011;2075;51.062;6.920;2024-01-10T13:16:02;19.77;;;10.70;;
4122;SDS011;2075;51.062;6.920;2024-01-10T13:18:50;24.90;;;10.93;;
4122;SDS011;2075;51.062;6.920;2024-01-10T13:21:37;21.23;;;11.70;;
4122;SDS011;2075;51.062;6.920;2024-01-10T13:24:24;24.30;;;10.93;;
4122;SDS011;2075;51.062;6.920;2024-01-10T13:27:13;23.40;;;10.67;;
4122;SDS011;2075;51.062;6.920;2024-01-10T13:29:59;25.77;;;10.93;;
4122;SDS011;2075;51.062;6.920;2024-01-10T13:32:46;24.03;;;11.73;;
4122;SDS011;2075;51.062;6.920;2024-01-10T13:35:33;19.57;;;10.47;;
4122;SDS011;2075;51.062;6.920;2024-01-10T13:38:19;22.50;;;10.50;;
4122;SDS011;2075;51.062;6.920;2024-01-10T13:41:07;31.33;;;12.20;;
4122;SDS011;2075;51.062;6.920;2024-01-10T13:43:55;23.42;;;10.10;;
4122;SDS011;2075;51.062;6.920;2024-01-10T13:46:41;24.80;;;11.50;;
4122;SDS011;2075;51.062;6.920;2024-01-10T13:49:27;28.30;;;12.60;;
4122;SDS011;2075;51.062;6.920;2024-01-10T13:52:16;23.20;;;11.30;;
4122;SDS011;2075;51.062;6.920;2024-01-10T13:55:01;22.30;;;11.40;;
4122;SDS011;2075;51.062;6.920;2024-01-10T13:57:51;28.85;;;14.38;;
4122;SDS011;2075;51.062;6.920;2024-01-10T14:00:37;24.53;;;12.90;;
4122;SDS011;2075;51.062;6.920;2024-01-10T14:03:23;23.67;;;12.80;;
4122;SDS011;2075;51.062;6.920;2024-01-10T14:06:10;26.27;;;12.40;;
4122;SDS011;2075;51.062;6.920;2024-01-10T14:08:58;23.43;;;11.83;;
4122;SDS011;2075;51.062;6.920;2024-01-10T14:11:45;23.67;;;12.83;;
4122;SDS011;2075;51.062;6.920;2024-01-10T14:14:33;23.73;;;13.60;;
4122;SDS011;2075;51.062;6.920;2024-01-10T14:17:20;30.03;;;13.13;;
4122;SDS011;2075;51.062;6.920;2024-01-10T14:20:10;25.13;;;12.90;;
4122;SDS011;2075;51.062;6.920;2024-01-10T14:22:57;26.70;;;12.10;;
4122;SDS011;2075;51.062;6.920;2024-01-10T14:25:47;25.73;;;12.70;;
4122;SDS011;2075;51.062;6.920;2024-01-10T14:28:33;31.03;;;12.40;;
4122;SDS011;2075;51.062;6.920;2024-01-10T14:31:21;23.40;;;11.70;;
4122;SDS011;2075;51.062;6.920;2024-01-10T14:34:09;30.40;;;12.77;;
4122;SDS011;2075;51.062;6.920;2024-01-10T14:36:55;30.27;;;12.93;;
4122;SDS011;2075;51.062;6.920;2024-01-10T14:39:41;24.10;;;12.40;;
4122;SDS011;2075;51.062;6.920;2024-01-10T14:42:29;27.07;;;11.87;;
4122;SDS011;2075;51.062;6.920;2024-01-10T14:45:17;25.97;;;13.07;;
4122;SDS011;2075;51.062;6.920;2024-01-10T14:48:04;26.70;;;12.10;;
4122;SDS011;2075;51.062;6.920;2024-01-10T14:50:51;26.80;;;12.27;;
4122;SDS011;2075;51.062;6.920;2024-01-10T14:53:36;29.47;;;14.53;;
4122;SDS011;2075;51.062;6.920;2024-01-10T14:56:23;29.40;;;14.57;;
4122;SDS011;2075;51.062;6.920;2024-01-10T14:59:12;27.20;;;13.03;;
4122;SDS011;2075;51.062;6.920;2024-01-10T15:02:15;25.30;;;12.77;;
4122;SDS011;2075;51.062;6.920;2024-01-10T15:05:03;26.33;;;12.07;;
4122;SDS011;2075;51.062;6.920;2024-01-10T15:07:50;26.43;;;12.10;;
4122;SDS011;2075;51.062;6.920;2024-01-10T15:10:36;32.07;;;12.00;;
4122;SDS011;2075;51.062;6.920;2024-01-10T15:13:27;25.53;;;11.23;;
4122;SDS011;2075;51.062;6.920;2024-01-10T15:16:15;20.23;;;10.63;;
4122;SDS011;2075;51.062;6.920;2024-01-10T15:19:01;22.60;;;12.03;;
4122;SDS011;2075;51.062;6.920;2024-01-10T15:21:47;20.70;;;9.90;;
4122;SDS011;2075;51.062;6.920;2024-01-10T15:24:33;23.17;;;9.93;;
4122;SDS011;2075;51.062;6.920;2024-01-10T15:27:22;22.43;;;10.73;;
4122;SDS011;2075;51.062;6.920;2024-01-10T15:30:09;24.83;;;11.57;;
4122;SDS011;2075;51.062;6.920;2024-01-10T15:33:01;21.93;;;10.97;;
4122;SDS011;2075;51.062;6.920;2024-01-10T15:35:48;25.77;;;11.43;;
4122;SDS011;2075;51.062;6.920;2024-01-10T15:38:34;38.83;;;13.57;;
4122;SDS011;2075;51.062;6.920;2024-01-10T15:41:21;30.27;;;12.40;;
4122;SDS011;2075;51.062;6.920;2024-01-10T15:44:07;24.73;;;12.10;;
4122;SDS011;2075;51.062;6.920;2024-01-10T15:46:56;23.33;;;10.80;;
4122;SDS011;2075;51.062;6.920;2024-01-10T15:49:44;21.73;;;11.57;;
4122;SDS011;2075;51.062;6.920;2024-01-10T15:52:32;21.97;;;10.27;;
4122;SDS011;2075;51.062;6.920;2024-01-10T15:55:18;22.77;;;10.00;;
4122;SDS011;2075;51.062;6.920;2024-01-10T15:58:04;24.10;;;11.10;;
4122;SDS011;2075;51.062;6.920;2024-01-10T16:00:50;19.30;;;9.50;;
4122;SDS011;2075;51.062;6.920;2024-01-10T16:03:36;24.60;;;11.60;;
4122;SDS011;2075;51.062;6.920;2024-01-10T16:06:26;24.63;;;12.53;;
4122;SDS011;2075;51.062;6.920;2024-01-10T16:09:13;24.67;;;11.67;;
4122;SDS011;2075;51.062;6.920;2024-01-10T16:11:59;43.07;;;14.30;;
4122;SDS011;2075;51.062;6.920;2024-01-10T16:14:45;29.40;;;14.70;;
4122;SDS011;2075;51.062;6.920;2024-01-10T16:17:31;33.30;;;13.20;;
4122;SDS011;2075;51.062;6.920;2024-01-10T16:20:17;19.83;;;11.47;;
4122;SDS011;2075;51.062;6.920;2024-01-10T16:23:08;25.03;;;9.80;;
4122;SDS011;2075;51.062;6.920;2024-01-10T16:25:55;26.38;;;12.63;;
4122;SDS011;2075;51.062;6.920;2024-01-10T16:28:43;19.17;;;12.80;;
4122;SDS011;2075;51.062;6.920;2024-01-10T16:31:29;31.33;;;12.83;;
4122;SDS011;2075;51.062;6.920;2024-01-10T16:34:15;46.47;;;19.27;;
4122;SDS011;2075;51.062;6.920;2024-01-10T16:37:01;53.13;;;21.90;;
4122;SDS011;2075;51.062;6.920;2024-01-10T16:39:49;25.53;;;12.63;;
4122;SDS011;2075;51.062;6.920;2024-01-10T16:42:38;31.70;;;12.67;;
4122;SDS011;2075;51.062;6.920;2024-01-10T16:45:24;25.27;;;12.97;;
4122;SDS011;2075;51.062;6.920;2024-01-10T16:48:10;30.53;;;14.53;;
4122;SDS011;2075;51.062;6.920;2024-01-10T16:50:56;29.30;;;14.17;;
4122;SDS011;2075;51.062;6.920;2024-01-10T16:53:42;37.40;;;15.70;;
4122;SDS011;2075;51.062;6.920;2024-01-10T16:56:30;28.92;;;16.10;;